Time;durP1;ratioP1;P1;durP2;ratioP2;P2;SDS_P1;SDS_P2;PMS_P1;PMS_P2;Temp;Humidity;BMP_temperature;BMP_pressure;BME280_temperature;BME280_humidity;BME280_pressure;Samples;Min_cycle;Max_cycle;Signal;HPM_P1;HPM_P2
2021/12/07 00:01:37;;;;;;;73.03;31.65;;;8.50;99.90;;;;;;5088385;28;20406;-71
2021/12/07 00:04:05;;;;;;;101.18;37.60;;;8.60;99.90;;;;;;5087963;28;20052;-70
2021/12/07 00:06:31;;;;;;;85.50;35.42;;;8.60;99.90;;;;;;5100787;28;20070;-70
2021/12/07 00:08:57;;;;;;;90.45;37.55;;;8.60;99.90;;;;;;5095415;28;20055;-70
2021/12/07 00:11:29;;;;;;;79.13;33.50;;;8.60;99.90;;;;;;5078682;28;20107;-69
2021/12/07 00:13:59;;;;;;;73.32;32.67;;;8.60;99.90;;;;;;5078578;28;20028;-71
2021/12/07 00:16:27;;;;;;;70.60;32.10;;;8.70;99.90;;;;;;5081612;28;20038;-71
2021/12/07 00:18:53;;;;;;;68.32;31.23;;;8.60;99.90;;;;;;5095187;28;20050;-71
2021/12/07 00:21:20;;;;;;;69.55;31.80;;;8.70;99.90;;;;;;5092183;28;20059;-71
2021/12/07 00:23:49;;;;;;;67.85;32.20;;;8.70;99.90;;;;;;5072891;28;20035;-71
2021/12/07 00:26:15;;;;;;;67.85;32.03;;;8.70;99.90;;;;;;5078101;28;20032;-71
2021/12/07 00:28:42;;;;;;;65.55;31.88;;;8.70;99.90;;;;;;5086787;28;20032;-71
2021/12/07 00:31:14;;;;;;;62.50;31.67;;;8.70;99.90;;;;;;5074816;28;20119;-71
2021/12/07 00:34:37;;;;;;;67.03;31.55;;;8.70;99.90;;;;;;5078408;28;20097;-71
2021/12/07 00:36:29;;;;;;;62.95;29.88;;;8.80;99.90;;;;;;5069917;28;20039;-71
2021/12/07 00:38:54;;;;;;;57.50;29.08;;;8.80;99.90;;;;;;5076898;28;20383;-71
2021/12/07 00:41:20;;;;;;;58.40;29.02;;;8.80;99.90;;;;;;5094672;28;20024;-72
2021/12/07 00:43:46;;;;;;;57.83;28.73;;;8.90;99.90;;;;;;5094813;28;20020;-71
2021/12/07 00:46:12;;;;;;;58.50;29.75;;;8.90;99.90;;;;;;5096038;28;20450;-70
2021/12/07 00:48:37;;;;;;;56.83;30.23;;;9.00;99.90;;;;;;5095218;28;20028;-70
2021/12/07 00:51:03;;;;;;;91.45;40.20;;;8.90;99.90;;;;;;5064581;28;20434;-70
2021/12/07 00:53:29;;;;;;;69.43;37.65;;;9.00;99.90;;;;;;5063361;28;20077;-70
2021/12/07 00:56:01;;;;;;;76.70;38.95;;;9.00;99.90;;;;;;5094879;28;20028;-69
2021/12/07 00:58:28;;;;;;;70.85;35.78;;;9.00;99.90;;;;;;5092913;28;20066;-71
2021/12/07 01:01:04;;;;;;;76.88;36.80;;;9.00;99.90;;;;;;5089338;28;20036;-69
2021/12/07 01:03:30;;;;;;;68.55;35.95;;;8.90;99.90;;;;;;5094513;28;20028;-69
2021/12/07 01:06:16;;;;;;;76.55;38.03;;;8.90;99.90;;;;;;5076402;28;20044;-71
2021/12/07 01:09:01;;;;;;;110.97;42.50;;;8.90;99.90;;;;;;5095205;28;20505;-70
2021/12/07 01:25:28;;;;;;;78.97;38.17;;;8.80;99.90;;;;;;5078043;28;20072;-70
2021/12/07 01:27:57;;;;;;;91.57;46.78;;;8.90;99.90;;;;;;5094591;28;20522;-71
2021/12/07 01:30:37;;;;;;;89.72;47.90;;;8.80;99.90;;;;;;5085002;28;20423;-70
2021/12/07 01:33:27;;;;;;;83.43;47.53;;;8.90;99.90;;;;;;5074959;28;20384;-70
2021/12/07 01:36:06;;;;;;;86.43;47.25;;;8.90;99.90;;;;;;5056704;28;20075;-71
2021/12/07 01:44:25;;;;;;;76.57;42.10;;;8.90;99.90;;;;;;5086001;28;20029;-70
2021/12/07 01:59:42;;;;;;;50.00;27.25;;;9.00;99.90;;;;;;5086181;28;20024;-70
2021/12/07 02:02:11;;;;;;;50.70;29.67;;;9.00;99.90;;;;;;5094376;28;20406;-69
2021/12/07 02:04:38;;;;;;;53.90;29.98;;;9.00;99.90;;;;;;5067681;28;20471;-69
2021/12/07 02:07:05;;;;;;;55.72;31.77;;;9.00;99.90;;;;;;5073985;28;20041;-70
2021/12/07 02:09:34;;;;;;;57.15;30.20;;;9.00;99.90;;;;;;5073868;28;20028;-71
2021/12/07 02:12:02;;;;;;;59.22;33.28;;;9.00;99.90;;;;;;5079835;28;20020;-71
2021/12/07 02:14:29;;;;;;;52.92;31.05;;;9.00;99.90;;;;;;5094274;28;20027;-69
2021/12/07 02:16:58;;;;;;;53.30;29.48;;;9.00;99.90;;;;;;5094095;28;20069;-69
2021/12/07 02:19:25;;;;;;;52.38;29.38;;;9.00;99.90;;;;;;5076067;28;20032;-70
2021/12/07 02:21:52;;;;;;;61.85;34.10;;;9.10;99.90;;;;;;5071862;28;20036;-70
2021/12/07 02:24:18;;;;;;;57.00;32.08;;;9.10;99.90;;;;;;5088772;28;20032;-70
2021/12/07 02:26:44;;;;;;;55.85;31.38;;;9.10;99.90;;;;;;5075727;28;20040;-69
2021/12/07 02:29:10;;;;;;;60.90;33.38;;;9.10;99.90;;;;;;5076124;28;20115;-69
2021/12/07 02:31:36;;;;;;;65.45;34.72;;;9.10;99.90;;;;;;5060805;28;20082;-70
2021/12/07 02:34:03;;;;;;;49.65;31.23;;;9.20;99.90;;;;;;5072566;28;20060;-69
2021/12/07 02:36:30;;;;;;;53.28;31.50;;;9.20;99.90;;;;;;5072417;28;20051;-70
2021/12/07 02:38:56;;;;;;;64.93;32.70;;;9.20;99.90;;;;;;5076316;28;20036;-69
2021/12/07 02:41:22;;;;;;;63.80;33.65;;;9.20;99.90;;;;;;5092963;28;20020;-69
2021/12/07 02:43:48;;;;;;;64.22;34.38;;;9.30;99.90;;;;;;5088411;28;20398;-70
2021/12/07 02:46:14;;;;;;;79.88;44.88;;;9.30;99.90;;;;;;5084045;28;20131;-70
2021/12/07 02:48:40;;;;;;;114.43;57.85;;;9.30;99.90;;;;;;5100099;28;20038;-71
2021/12/07 02:51:06;;;;;;;119.95;65.85;;;9.30;99.90;;;;;;5099085;28;20024;-71
2021/12/07 02:53:34;;;;;;;124.68;72.53;;;9.30;99.90;;;;;;5080542;28;20027;-70
2021/12/07 02:56:01;;;;;;;200.93;98.90;;;9.30;99.90;;;;;;5078283;28;20036;-69
2021/12/07 02:58:27;;;;;;;103.18;54.33;;;9.30;99.90;;;;;;5087418;28;20028;-69
2021/12/07 03:01:07;;;;;;;81.00;36.92;;;9.30;99.90;;;;;;5074302;28;20024;-69
2021/12/07 03:03:37;;;;;;;79.75;35.55;;;9.30;99.90;;;;;;5093317;28;20055;-70
2021/12/07 03:06:16;;;;;;;95.88;48.78;;;9.30;99.90;;;;;;5093091;28;20036;-70
2021/12/07 03:27:48;;;;;;;112.95;52.70;;;9.20;99.90;;;;;;5073383;28;20086;-69
2021/12/07 03:30:14;;;;;;;95.30;49.67;;;9.30;99.90;;;;;;5073284;28;20378;-69
2021/12/07 03:32:40;;;;;;;83.18;38.03;;;9.30;99.90;;;;;;5084952;28;20035;-70
2021/12/07 03:35:06;;;;;;;125.63;47.45;;;9.30;99.90;;;;;;5091633;28;20020;-69
2021/12/07 03:37:32;;;;;;;101.53;47.22;;;9.30;99.90;;;;;;5089162;28;20122;-69
2021/12/07 03:39:58;;;;;;;121.15;48.50;;;9.30;99.90;;;;;;5094779;28;20472;-69
2021/12/07 03:42:24;;;;;;;102.40;43.55;;;9.30;99.90;;;;;;5105266;28;20058;-69
2021/12/07 03:44:50;;;;;;;139.13;45.83;;;9.30;99.90;;;;;;5103057;28;20032;-70
2021/12/07 03:47:16;;;;;;;227.63;43.53;;;9.40;99.90;;;;;;5093548;28;20039;-70
2021/12/07 03:49:42;;;;;;;225.43;46.53;;;9.30;99.90;;;;;;5082096;28;20035;-71
2021/12/07 03:52:08;;;;;;;218.02;47.95;;;9.30;99.90;;;;;;5093473;28;20485;-69
2021/12/07 03:54:33;;;;;;;298.15;57.78;;;9.30;99.90;;;;;;5092955;28;20028;-70
2021/12/07 03:56:59;;;;;;;282.75;58.13;;;9.30;99.90;;;;;;5092959;28;20470;-70
2021/12/07 03:59:25;;;;;;;253.07;52.30;;;9.30;99.90;;;;;;5066585;28;20119;-70
2021/12/07 04:01:52;;;;;;;277.80;54.05;;;9.30;99.90;;;;;;5086978;28;20071;-70
2021/12/07 04:04:18;;;;;;;267.00;53.10;;;9.30;99.90;;;;;;5074641;28;20123;-70
2021/12/07 04:06:44;;;;;;;352.63;57.20;;;9.30;99.90;;;;;;5092349;28;20444;-69
2021/12/07 04:09:09;;;;;;;290.33;46.15;;;9.30;99.90;;;;;;5096229;28;20020;-69
2021/12/07 04:11:35;;;;;;;327.23;66.03;;;9.20;99.90;;;;;;5096501;28;20531;-70
2021/12/07 04:14:01;;;;;;;294.23;50.92;;;9.20;99.90;;;;;;5095757;28;20039;-70
2021/12/07 04:16:26;;;;;;;336.73;83.22;;;9.20;99.90;;;;;;5095795;28;20524;-70
2021/12/07 04:18:52;;;;;;;439.42;145.82;;;9.20;99.90;;;;;;5078378;28;20020;-70
2021/12/07 04:21:18;;;;;;;434.40;133.02;;;9.20;99.90;;;;;;5093042;28;20093;-70
2021/12/07 04:23:44;;;;;;;379.27;96.70;;;9.20;99.90;;;;;;5089354;28;20032;-69
2021/12/07 04:26:12;;;;;;;284.20;66.22;;;9.20;99.90;;;;;;5091793;28;20497;-69
2021/12/07 04:28:39;;;;;;;316.30;68.60;;;9.20;99.90;;;;;;5077782;28;20051;-69
2021/12/07 04:31:06;;;;;;;390.02;69.78;;;9.20;99.90;;;;;;5075573;28;20448;-70
2021/12/07 04:33:32;;;;;;;340.30;55.33;;;9.20;99.90;;;;;;5086022;28;20028;-70
2021/12/07 04:35:59;;;;;;;356.33;67.63;;;9.20;99.90;;;;;;5102344;28;20056;-71
2021/12/07 04:38:25;;;;;;;298.23;66.85;;;9.20;99.90;;;;;;5085657;28;20035;-69
2021/12/07 04:40:50;;;;;;;247.35;55.22;;;9.20;99.90;;;;;;5095870;28;20025;-69
2021/12/07 04:43:16;;;;;;;316.25;62.38;;;9.20;99.90;;;;;;5095652;28;20513;-69
2021/12/07 04:59:03;;;;;;;244.32;58.22;;;9.30;99.90;;;;;;5083634;28;20062;-70
2021/12/07 05:01:31;;;;;;;426.30;109.50;;;9.30;99.90;;;;;;5087659;28;20498;-70
2021/12/07 05:04:00;;;;;;;288.05;76.97;;;9.30;99.90;;;;;;5093655;28;20055;-70
2021/12/07 05:06:29;;;;;;;327.95;110.35;;;9.30;99.90;;;;;;5073194;28;20040;-70
2021/12/07 05:09:05;;;;;;;132.20;53.38;;;9.30;99.90;;;;;;5065772;28;20413;-71
2021/12/07 05:11:46;;;;;;;273.73;111.40;;;9.30;99.90;;;;;;5095232;28;20050;-71
2021/12/07 05:14:20;;;;;;;351.23;109.65;;;9.40;99.90;;;;;;5090919;28;20381;-70
2021/12/07 05:17:16;;;;;;;313.88;78.43;;;9.40;99.90;;;;;;5075908;28;20433;-70
2021/12/07 05:38:43;;;;;;;217.07;63.72;;;9.40;99.90;;;;;;5083761;28;20115;-73
2021/12/07 05:41:09;;;;;;;237.40;59.28;;;9.40;99.90;;;;;;5073864;28;20441;-73
2021/12/07 05:43:35;;;;;;;262.38;61.28;;;9.50;99.90;;;;;;5072840;28;20029;-73
2021/12/07 05:46:03;;;;;;;206.35;58.03;;;9.50;99.90;;;;;;5072493;28;20040;-72
2021/12/07 05:48:28;;;;;;;134.55;52.63;;;9.50;99.90;;;;;;5089438;28;20036;-73
2021/12/07 05:50:54;;;;;;;125.63;50.75;;;9.50;99.90;;;;;;5073842;28;20360;-74
2021/12/07 05:53:20;;;;;;;127.05;59.95;;;9.50;99.90;;;;;;5074129;28;20032;-73
2021/12/07 05:55:46;;;;;;;129.40;55.03;;;9.60;99.90;;;;;;5089815;28;20454;-72
2021/12/07 05:58:12;;;;;;;169.85;68.10;;;9.60;99.90;;;;;;5074167;28;20024;-74
2021/12/07 06:00:42;;;;;;;376.98;108.85;;;9.60;99.90;;;;;;5073878;28;20028;-72
2021/12/07 06:03:09;;;;;;;148.88;60.08;;;9.60;99.90;;;;;;5074382;28;20056;-72
2021/12/07 06:05:36;;;;;;;138.48;57.75;;;9.60;99.90;;;;;;5072915;28;20031;-73
2021/12/07 06:08:03;;;;;;;78.82;45.03;;;9.60;99.90;;;;;;5074009;28;20036;-73
2021/12/07 06:10:29;;;;;;;166.93;88.28;;;9.60;99.90;;;;;;5074212;28;20138;-72
2021/12/07 06:12:55;;;;;;;223.95;110.03;;;9.70;99.90;;;;;;5072760;28;20074;-72
2021/12/07 06:15:27;;;;;;;106.78;53.65;;;9.60;99.90;;;;;;5072733;28;20455;-73
2021/12/07 06:17:53;;;;;;;197.95;76.15;;;9.70;99.90;;;;;;5074357;28;20103;-73
2021/12/07 06:20:20;;;;;;;191.57;92.25;;;9.70;99.90;;;;;;5073360;28;20438;-74
2021/12/07 06:22:46;;;;;;;194.65;105.55;;;9.70;99.90;;;;;;5077047;28;20029;-72
2021/12/07 06:25:12;;;;;;;188.90;95.47;;;9.70;99.90;;;;;;5081036;28;20055;-72
2021/12/07 06:27:39;;;;;;;137.13;75.88;;;9.70;99.90;;;;;;5078788;28;20060;-73
2021/12/07 06:30:07;;;;;;;243.32;111.22;;;9.70;99.90;;;;;;5072993;28;20036;-72
2021/12/07 06:32:33;;;;;;;82.57;51.20;;;9.70;99.90;;;;;;5073945;28;20050;-72
2021/12/07 06:34:58;;;;;;;112.50;64.15;;;9.70;99.90;;;;;;5074302;28;20525;-72
2021/12/07 06:37:24;;;;;;;115.95;65.53;;;9.70;99.90;;;;;;5073772;28;20070;-72
2021/12/07 06:39:50;;;;;;;111.95;64.10;;;9.70;99.90;;;;;;5072235;28;20402;-73
2021/12/07 06:42:16;;;;;;;74.18;47.45;;;9.70;99.90;;;;;;5074009;28;20067;-73
2021/12/07 06:44:42;;;;;;;97.90;59.20;;;9.70;99.90;;;;;;5073982;28;20336;-72
2021/12/07 06:47:07;;;;;;;216.38;126.13;;;9.70;99.90;;;;;;5073680;28;20071;-72
2021/12/07 06:49:34;;;;;;;189.23;112.13;;;9.70;99.90;;;;;;5073601;28;20038;-73
2021/12/07 06:52:02;;;;;;;101.68;54.78;;;9.70;99.90;;;;;;5073753;28;20056;-73
2021/12/07 06:54:28;;;;;;;167.95;95.53;;;9.70;99.90;;;;;;5073531;28;20020;-72
2021/12/07 06:56:54;;;;;;;197.32;115.47;;;9.70;99.90;;;;;;5073659;28;20035;-73
2021/12/07 06:59:20;;;;;;;149.00;95.13;;;9.70;99.90;;;;;;5073779;28;20470;-73
2021/12/07 07:01:47;;;;;;;143.05;83.07;;;9.80;99.90;;;;;;5071654;28;20044;-73
2021/12/07 07:04:14;;;;;;;113.85;61.28;;;9.70;99.90;;;;;;5071670;28;20032;-73
2021/12/07 07:06:41;;;;;;;195.80;95.70;;;9.80;99.90;;;;;;5072652;28;20040;-73
2021/12/07 07:09:08;;;;;;;389.35;183.48;;;9.80;99.90;;;;;;5071257;28;20407;-72
2021/12/07 07:11:34;;;;;;;174.35;105.57;;;9.70;99.90;;;;;;5072414;28;20044;-73
2021/12/07 07:14:01;;;;;;;162.68;99.07;;;9.70;99.90;;;;;;5072783;28;20466;-73
2021/12/07 07:16:27;;;;;;;134.90;87.57;;;9.70;99.90;;;;;;5071576;28;20063;-73
2021/12/07 07:18:53;;;;;;;152.05;104.75;;;9.80;99.90;;;;;;5087299;28;20047;-73
2021/12/07 07:21:19;;;;;;;63.30;42.10;;;9.80;99.90;;;;;;5089876;28;20028;-73
2021/12/07 07:23:45;;;;;;;73.03;46.90;;;9.80;99.90;;;;;;5073182;28;20569;-73
2021/12/07 07:26:10;;;;;;;71.28;46.47;;;9.90;99.90;;;;;;5072518;28;20123;-73
2021/12/07 07:28:36;;;;;;;64.65;43.08;;;10.00;99.90;;;;;;5071136;28;20382;-73
2021/12/07 07:31:05;;;;;;;58.92;39.00;;;10.00;99.90;;;;;;5071121;28;20360;-73
2021/12/07 07:33:30;;;;;;;57.28;37.95;;;10.10;99.90;;;;;;5071081;28;20507;-73
2021/12/07 07:35:56;;;;;;;60.03;42.90;;;10.20;99.90;;;;;;5071095;28;20029;-73
2021/12/07 07:38:22;;;;;;;73.25;47.17;;;10.20;99.90;;;;;;5072135;28;20425;-73
2021/12/07 07:40:49;;;;;;;76.80;54.85;;;10.30;99.90;;;;;;5070923;28;20027;-73
2021/12/07 07:43:16;;;;;;;59.60;42.58;;;10.30;99.90;;;;;;5074631;28;20103;-73
2021/12/07 07:45:43;;;;;;;82.18;60.03;;;10.30;99.90;;;;;;5074481;28;20028;-73
2021/12/07 07:48:09;;;;;;;87.53;60.72;;;10.40;99.90;;;;;;5074425;28;20131;-73
2021/12/07 07:50:35;;;;;;;92.47;61.38;;;10.40;99.90;;;;;;5075662;28;20063;-73
2021/12/07 07:53:01;;;;;;;64.15;46.13;;;10.40;99.90;;;;;;5074134;28;20374;-73
2021/12/07 07:55:27;;;;;;;79.43;57.95;;;10.50;99.90;;;;;;5075407;28;20025;-73
2021/12/07 07:57:53;;;;;;;59.30;41.25;;;10.40;99.90;;;;;;5075510;28;20032;-73
2021/12/07 08:00:21;;;;;;;76.53;48.92;;;10.40;99.90;;;;;;5075504;28;20513;-73
2021/12/07 08:02:48;;;;;;;74.68;45.58;;;10.40;99.90;;;;;;5035098;28;1175750;-73
2021/12/07 08:05:15;;;;;;;82.25;52.75;;;10.50;99.90;;;;;;5076636;28;20064;-73
2021/12/07 08:07:46;;;;;;;70.82;46.78;;;10.50;99.90;;;;;;5076863;28;20360;-73
2021/12/07 08:10:13;;;;;;;59.22;41.50;;;10.50;99.90;;;;;;5075371;28;20055;-74
2021/12/07 08:12:39;;;;;;;70.18;48.40;;;10.50;99.90;;;;;;5080642;28;20111;-72
2021/12/07 08:15:06;;;;;;;61.13;41.88;;;10.50;99.90;;;;;;5086259;28;20032;-73
2021/12/07 08:17:32;;;;;;;55.63;38.45;;;10.50;99.90;;;;;;5080094;28;20115;-73
2021/12/07 08:19:57;;;;;;;64.68;45.28;;;10.50;99.90;;;;;;5076288;28;20056;-74
2021/12/07 08:22:23;;;;;;;72.78;46.28;;;10.50;99.90;;;;;;5091861;28;20440;-72
2021/12/07 08:24:49;;;;;;;67.85;41.63;;;10.50;99.90;;;;;;5076162;28;20425;-74
2021/12/07 08:27:15;;;;;;;62.45;40.17;;;10.50;99.90;;;;;;5075427;28;20485;-73
2021/12/07 08:29:41;;;;;;;65.75;39.25;;;10.50;99.90;;;;;;5091903;28;20480;-73
2021/12/07 08:32:08;;;;;;;57.00;32.97;;;10.50;99.90;;;;;;5076454;28;20025;-74
2021/12/07 08:34:34;;;;;;;61.70;37.17;;;10.50;99.90;;;;;;5076009;28;20028;-72
2021/12/07 08:37:00;;;;;;;60.28;37.45;;;10.50;99.90;;;;;;5076131;28;20591;-74
2021/12/07 08:39:25;;;;;;;77.80;49.75;;;10.50;99.90;;;;;;5076084;28;20355;-72
2021/12/07 08:41:51;;;;;;;80.93;49.67;;;10.50;99.90;;;;;;5076091;28;20099;-73
2021/12/07 08:44:17;;;;;;;97.72;58.83;;;10.50;99.90;;;;;;5074626;28;20025;-73
2021/12/07 08:46:42;;;;;;;88.43;44.63;;;10.50;99.90;;;;;;5075747;28;20028;-73
2021/12/07 08:49:08;;;;;;;82.70;42.20;;;10.50;99.90;;;;;;5075744;28;20029;-73
2021/12/07 08:51:34;;;;;;;70.00;36.30;;;10.50;99.90;;;;;;5074557;28;20123;-73
2021/12/07 08:54:20;;;;;;;62.20;31.45;;;10.50;99.90;;;;;;5075667;28;20050;-72
2021/12/07 08:59:39;;;;;;;65.05;35.22;;;10.50;99.90;;;;;;5075854;28;20078;-74
2021/12/07 09:02:05;;;;;;;60.95;32.90;;;10.50;99.90;;;;;;5074360;28;20407;-73
2021/12/07 09:04:31;;;;;;;72.22;38.85;;;10.50;99.90;;;;;;5075590;28;20024;-73
2021/12/07 09:06:57;;;;;;;130.88;69.25;;;10.50;99.90;;;;;;5078072;28;20564;-73
2021/12/07 09:09:22;;;;;;;131.27;68.32;;;10.50;99.90;;;;;;5089010;28;20025;-73
2021/12/07 09:11:49;;;;;;;76.15;42.47;;;10.40;99.90;;;;;;5082266;28;20063;-73
2021/12/07 09:14:17;;;;;;;92.30;44.28;;;10.40;99.90;;;;;;5076294;28;20411;-73
2021/12/07 09:16:44;;;;;;;111.65;57.40;;;10.40;99.90;;;;;;5075669;28;20033;-72
2021/12/07 09:19:11;;;;;;;73.10;37.03;;;10.50;99.90;;;;;;5074125;28;20111;-73
2021/12/07 09:21:37;;;;;;;84.18;44.15;;;10.50;99.90;;;;;;5075176;28;20039;-74
2021/12/07 09:24:05;;;;;;;92.22;50.80;;;10.40;99.90;;;;;;5075317;28;20032;-72
2021/12/07 09:26:32;;;;;;;86.95;48.53;;;10.50;99.90;;;;;;5074929;28;20043;-74
2021/12/07 09:29:01;;;;;;;80.20;45.15;;;10.50;99.90;;;;;;5073818;28;20028;-73
2021/12/07 09:31:26;;;;;;;109.40;56.00;;;10.50;99.90;;;;;;5075038;28;20051;-74
2021/12/07 09:33:54;;;;;;;98.45;53.40;;;10.40;99.90;;;;;;5073719;28;20056;-74
2021/12/07 09:36:20;;;;;;;94.90;56.83;;;10.50;99.90;;;;;;5073697;28;20033;-73
2021/12/07 09:38:46;;;;;;;99.05;59.05;;;10.50;99.90;;;;;;5073535;28;20028;-73
2021/12/07 09:41:15;;;;;;;72.28;45.53;;;10.50;99.90;;;;;;5073468;28;20024;-73
2021/12/07 09:43:41;;;;;;;96.30;56.50;;;10.50;99.90;;;;;;5075435;28;20028;-73
2021/12/07 09:46:08;;;;;;;141.95;83.95;;;10.50;99.90;;;;;;5073416;28;20024;-74
2021/12/07 09:48:37;;;;;;;100.32;67.65;;;10.60;99.90;;;;;;5073450;28;20035;-74
2021/12/07 09:51:06;;;;;;;103.15;62.53;;;10.60;99.90;;;;;;5074525;28;20036;-73
2021/12/07 09:53:32;;;;;;;76.53;46.90;;;10.60;99.90;;;;;;5090114;28;20029;-73
2021/12/07 09:55:59;;;;;;;69.28;41.45;;;10.60;99.90;;;;;;5074385;28;20151;-73
2021/12/07 09:58:28;;;;;;;56.15;39.88;;;10.60;99.90;;;;;;5075158;28;20024;-73
2021/12/07 10:00:54;;;;;;;62.75;40.17;;;10.60;99.90;;;;;;5074766;28;20028;-73
2021/12/07 10:03:21;;;;;;;58.10;40.45;;;10.70;99.90;;;;;;5078614;28;20088;-73
2021/12/07 10:05:47;;;;;;;62.50;40.67;;;10.70;99.90;;;;;;5077691;28;20044;-73
2021/12/07 10:08:16;;;;;;;70.97;45.25;;;10.70;99.90;;;;;;5079230;28;20108;-73
2021/12/07 10:10:54;;;;;;;57.28;35.85;;;10.80;99.90;;;;;;5075791;28;20035;-73
2021/12/07 10:13:27;;;;;;;55.63;36.20;;;10.80;99.90;;;;;;5074327;28;20052;-73
2021/12/07 10:15:56;;;;;;;53.72;34.72;;;10.80;99.90;;;;;;5072845;28;20067;-72
2021/12/07 10:18:25;;;;;;;61.95;39.40;;;10.80;99.90;;;;;;5074225;28;20466;-73
2021/12/07 10:20:55;;;;;;;88.85;56.30;;;10.90;99.90;;;;;;5072733;28;20074;-73
2021/12/07 10:23:26;;;;;;;103.25;68.43;;;10.90;99.90;;;;;;5074205;28;20451;-73
2021/12/07 10:26:14;;;;;;;115.65;73.45;;;10.90;99.90;;;;;;5073318;28;20431;-73
2021/12/07 10:28:40;;;;;;;69.95;44.42;;;11.00;99.90;;;;;;5072893;28;20470;-72
2021/12/07 10:31:22;;;;;;;117.50;73.20;;;11.00;99.90;;;;;;5074210;28;20078;-72
2021/12/07 10:34:00;;;;;;;93.43;59.10;;;11.10;99.90;;;;;;5073058;28;20024;-73
2021/12/07 10:36:29;;;;;;;126.82;75.45;;;11.10;99.90;;;;;;5072550;28;20463;-73
2021/12/07 10:39:13;;;;;;;123.13;76.43;;;11.10;99.90;;;;;;5072252;28;20029;-72
2021/12/07 10:41:54;;;;;;;177.85;105.95;;;11.10;99.90;;;;;;5072269;28;20031;-72
2021/12/07 10:44:27;;;;;;;123.13;76.75;;;11.10;99.90;;;;;;5073537;28;20025;-73
2021/12/07 10:46:58;;;;;;;131.18;81.30;;;11.10;99.90;;;;;;5072590;28;20078;-73
2021/12/07 10:49:35;;;;;;;110.57;72.15;;;11.10;99.90;;;;;;5073658;28;20513;-72
2021/12/07 10:52:04;;;;;;;88.40;59.97;;;11.10;99.90;;;;;;5072021;28;20032;-72
2021/12/07 10:54:36;;;;;;;90.63;58.63;;;11.10;99.90;;;;;;5071983;28;20028;-73
2021/12/07 10:57:03;;;;;;;103.13;66.47;;;11.10;99.90;;;;;;5074770;28;20024;-72
2021/12/07 10:59:30;;;;;;;71.63;47.00;;;11.10;99.90;;;;;;5088751;28;20028;-72
2021/12/07 11:01:56;;;;;;;83.47;52.15;;;11.10;99.90;;;;;;5084684;28;20120;-73
2021/12/07 11:04:33;;;;;;;87.25;54.60;;;11.00;99.90;;;;;;5074020;28;20107;-73
2021/12/07 11:07:21;;;;;;;98.13;62.00;;;11.00;99.90;;;;;;5073928;28;20036;-73
2021/12/07 11:10:07;;;;;;;106.95;68.85;;;11.10;99.90;;;;;;5074018;28;20028;-73
2021/12/07 11:12:45;;;;;;;126.78;78.75;;;11.10;99.90;;;;;;5073395;28;20025;-73
2021/12/07 11:15:16;;;;;;;131.63;82.78;;;11.10;99.90;;;;;;5074048;28;20033;-74
2021/12/07 11:17:43;;;;;;;134.68;82.47;;;11.10;99.90;;;;;;5073795;28;20111;-73
2021/12/07 11:20:10;;;;;;;104.97;69.65;;;11.00;99.90;;;;;;5076172;28;20024;-73
2021/12/07 11:22:39;;;;;;;103.13;71.05;;;11.00;99.90;;;;;;5077521;28;20032;-73
2021/12/07 11:25:07;;;;;;;88.97;55.47;;;11.00;99.90;;;;;;5077125;28;20024;-73
2021/12/07 11:30:27;;;;;;;89.70;59.60;;;10.90;99.90;;;;;;5077619;28;20032;-72
2021/12/07 11:32:56;;;;;;;97.07;61.92;;;10.90;99.90;;;;;;5077329;28;20021;-73
2021/12/07 11:35:29;;;;;;;74.05;47.22;;;10.90;99.90;;;;;;5075844;28;20467;-73
2021/12/07 11:37:57;;;;;;;77.38;49.40;;;10.80;99.90;;;;;;5075842;28;20040;-76
2021/12/07 11:40:38;;;;;;;100.72;61.75;;;10.70;99.90;;;;;;5076368;28;20494;-74
2021/12/07 11:43:17;;;;;;;107.43;73.60;;;10.60;99.90;;;;;;5075944;28;20075;-74
2021/12/07 11:45:45;;;;;;;79.75;54.63;;;10.60;99.90;;;;;;5075981;28;20032;-73
2021/12/07 11:48:11;;;;;;;60.67;41.20;;;10.60;99.90;;;;;;5075881;28;20029;-73
2021/12/07 11:50:47;;;;;;;85.80;58.95;;;10.60;99.90;;;;;;5076502;28;20029;-72
2021/12/07 11:53:21;;;;;;;52.85;38.25;;;10.70;99.90;;;;;;5083521;28;20035;-73
2021/12/07 11:55:49;;;;;;;40.28;28.92;;;10.80;99.90;;;;;;5087485;28;20029;-73
2021/12/07 11:58:16;;;;;;;42.15;29.17;;;10.80;99.90;;;;;;5080498;28;20154;-74
2021/12/07 12:00:51;;;;;;;37.10;25.38;;;10.90;99.90;;;;;;5077291;28;20020;-73
2021/12/07 12:03:21;;;;;;;26.95;20.88;;;10.90;99.90;;;;;;5075883;28;20421;-73
2021/12/07 12:05:49;;;;;;;28.10;19.92;;;11.00;99.90;;;;;;5075449;28;20029;-72
2021/12/07 12:08:19;;;;;;;27.23;19.90;;;11.10;99.90;;;;;;5075203;28;20041;-72
2021/12/07 12:10:53;;;;;;;41.25;27.63;;;11.10;99.90;;;;;;5075189;28;20111;-72
2021/12/07 12:13:41;;;;;;;49.00;35.88;;;11.20;99.90;;;;;;5075235;28;20025;-71
2021/12/07 12:16:30;;;;;;;50.53;34.33;;;11.20;99.90;;;;;;5075746;28;20032;-72
2021/12/07 12:19:23;;;;;;;39.15;27.38;;;11.20;99.90;;;;;;5076558;28;20032;-72
2021/12/07 12:22:04;;;;;;;67.05;41.58;;;11.20;99.90;;;;;;5074752;28;20033;-74
2021/12/07 12:24:47;;;;;;;45.45;32.70;;;11.20;99.90;;;;;;5075007;28;20038;-73
2021/12/07 12:27:20;;;;;;;56.80;37.30;;;11.20;99.90;;;;;;5075132;28;20371;-73
2021/12/07 12:29:50;;;;;;;54.47;39.15;;;11.20;99.90;;;;;;5074532;28;20454;-73
2021/12/07 12:32:41;;;;;;;45.65;34.80;;;11.20;99.90;;;;;;5076633;28;20035;-74
2021/12/07 12:35:10;;;;;;;71.68;51.08;;;11.20;99.90;;;;;;5075198;28;20030;-73
2021/12/07 12:37:38;;;;;;;127.55;80.47;;;11.20;99.90;;;;;;5074677;28;20386;-72
2021/12/07 12:40:11;;;;;;;60.28;45.17;;;11.20;99.90;;;;;;5076002;28;20024;-74
2021/12/07 12:42:43;;;;;;;80.20;63.92;;;11.20;99.90;;;;;;5074936;28;20028;-72
2021/12/07 12:45:28;;;;;;;88.40;67.85;;;11.20;99.90;;;;;;5075245;28;20021;-73
2021/12/07 12:47:55;;;;;;;155.57;93.13;;;11.10;99.90;;;;;;5077832;28;20036;-73
2021/12/07 12:50:30;;;;;;;114.28;72.72;;;11.10;99.90;;;;;;5083261;28;20029;-73
2021/12/07 12:53:08;;;;;;;222.93;129.25;;;11.00;99.90;;;;;;5078953;28;20024;-73
2021/12/07 12:55:39;;;;;;;186.93;121.30;;;11.00;99.90;;;;;;5075756;28;20028;-73
2021/12/07 12:58:16;;;;;;;179.68;117.32;;;10.90;99.90;;;;;;5074746;28;20024;-72
2021/12/07 13:00:57;;;;;;;116.13;80.28;;;10.90;99.90;;;;;;5074510;28;20418;-74
2021/12/07 13:03:23;;;;;;;118.50;81.53;;;10.90;99.90;;;;;;5074354;28;20463;-74
2021/12/07 13:06:01;;;;;;;93.00;62.83;;;10.80;99.90;;;;;;5075818;28;20036;-73
2021/12/07 13:08:27;;;;;;;70.53;49.13;;;10.80;99.90;;;;;;5075631;28;20071;-72
2021/12/07 13:10:58;;;;;;;118.60;78.65;;;10.80;99.90;;;;;;5074091;28;20032;-71
2021/12/07 13:13:31;;;;;;;116.00;77.40;;;10.70;99.90;;;;;;5075427;28;20032;-72
2021/12/07 13:15:57;;;;;;;127.35;78.72;;;10.80;99.90;;;;;;5075391;28;20027;-72
2021/12/07 13:18:31;;;;;;;98.50;62.05;;;10.70;99.90;;;;;;5075547;28;20029;-72
2021/12/07 13:20:57;;;;;;;91.60;60.45;;;10.50;99.90;;;;;;5075332;28;20028;-71
2021/12/07 13:23:31;;;;;;;122.72;82.85;;;10.40;99.90;;;;;;5075209;28;20021;-71
2021/12/07 13:25:57;;;;;;;105.22;66.50;;;10.30;99.90;;;;;;5073828;28;20104;-71
2021/12/07 13:28:33;;;;;;;132.20;84.82;;;10.20;99.90;;;;;;5074955;28;20060;-71
2021/12/07 13:31:11;;;;;;;167.18;101.90;;;10.10;99.90;;;;;;5075128;28;20405;-71
2021/12/07 13:33:51;;;;;;;174.57;101.93;;;10.10;99.90;;;;;;5090686;28;20033;-73
2021/12/07 13:36:45;;;;;;;145.07;91.57;;;10.20;99.90;;;;;;5073700;28;20029;-72
2021/12/07 13:39:10;;;;;;;111.20;69.45;;;10.20;99.90;;;;;;5073587;28;20032;-70
2021/12/07 13:41:54;;;;;;;126.38;76.13;;;10.10;99.90;;;;;;5073008;28;20021;-72
2021/12/07 13:44:20;;;;;;;144.85;87.35;;;10.20;99.90;;;;;;5087970;28;20032;-72
2021/12/07 13:46:47;;;;;;;137.00;88.40;;;10.20;99.90;;;;;;5090849;28;20037;-71
2021/12/07 13:49:13;;;;;;;190.40;111.47;;;10.20;99.90;;;;;;5077960;28;20085;-73
2021/12/07 13:51:40;;;;;;;115.03;78.93;;;10.20;99.90;;;;;;5075810;28;20029;-72
2021/12/07 13:54:13;;;;;;;120.10;80.05;;;10.20;99.90;;;;;;5075302;28;20029;-72
2021/12/07 13:56:39;;;;;;;118.68;77.22;;;10.20;99.90;;;;;;5074701;28;20028;-72
2021/12/07 13:59:10;;;;;;;112.32;79.03;;;10.20;99.90;;;;;;5074646;28;20027;-71
2021/12/07 14:01:38;;;;;;;139.18;92.95;;;10.20;99.90;;;;;;5073068;28;20506;-72
2021/12/07 14:04:06;;;;;;;131.00;95.78;;;10.20;99.90;;;;;;5074425;28;20028;-73
2021/12/07 14:06:32;;;;;;;142.52;103.43;;;10.20;99.90;;;;;;5073100;28;20063;-71